sensor_id;sensor_type;location;lat;lon;timestamp;P1;durP1;ratioP1;P2;durP2;ratioP2
23531;SDS011;11943;52.270;20.978;2023-04-25T00:00:27;18.58;;;14.93;;
23531;SDS011;11943;52.270;20.978;2023-04-25T00:02:52;19.65;;;14.25;;
23531;SDS011;11943;52.270;20.978;2023-04-25T00:05:18;20.52;;;14.82;;
23531;SDS011;11943;52.270;20.978;2023-04-25T00:07:44;20.85;;;14.27;;
23531;SDS011;11943;52.270;20.978;2023-04-25T00:10:11;22.92;;;15.07;;
23531;SDS011;11943;52.270;20.978;2023-04-25T00:12:37;25.38;;;14.90;;
23531;SDS011;11943;52.270;20.978;2023-04-25T00:15:04;20.93;;;15.37;;
23531;SDS011;11943;52.270;20.978;2023-04-25T00:17:30;18.70;;;15.07;;
23531;SDS011;11943;52.270;20.978;2023-04-25T00:19:56;19.15;;;15.27;;
23531;SDS011;11943;52.270;20.978;2023-04-25T00:22:23;20.77;;;14.90;;
23531;SDS011;11943;52.270;20.978;2023-04-25T00:24:49;19.27;;;15.75;;
23531;SDS011;11943;52.270;20.978;2023-04-25T00:27:15;17.88;;;15.77;;
23531;SDS011;11943;52.270;20.978;2023-04-25T00:29:41;21.80;;;15.68;;
23531;SDS011;11943;52.270;20.978;2023-04-25T00:32:06;22.85;;;15.75;;
23531;SDS011;11943;52.270;20.978;2023-04-25T00:34:32;23.27;;;16.02;;
23531;SDS011;11943;52.270;20.978;2023-04-25T00:36:57;23.73;;;16.48;;
23531;SDS011;11943;52.270;20.978;2023-04-25T00:39:26;19.00;;;16.38;;
23531;SDS011;11943;52.270;20.978;2023-04-25T00:41:52;23.80;;;17.98;;
23531;SDS011;11943;52.270;20.978;2023-04-25T00:44:19;21.58;;;16.83;;
23531;SDS011;11943;52.270;20.978;2023-04-25T00:46:46;22.08;;;16.88;;
23531;SDS011;11943;52.270;20.978;2023-04-25T00:49:13;22.42;;;16.60;;
23531;SDS011;11943;52.270;20.978;2023-04-25T00:54:07;20.58;;;17.50;;
23531;SDS011;11943;52.270;20.978;2023-04-25T00:56:32;26.02;;;17.55;;
23531;SDS011;11943;52.270;20.978;2023-04-25T00:58:58;23.63;;;17.48;;
23531;SDS011;11943;52.270;20.978;2023-04-25T01:01:24;23.75;;;17.80;;
23531;SDS011;11943;52.270;20.978;2023-04-25T01:03:50;24.10;;;19.02;;
23531;SDS011;11943;52.270;20.978;2023-04-25T01:06:16;22.50;;;17.70;;
23531;SDS011;11943;52.270;20.978;2023-04-25T01:08:41;22.60;;;18.23;;
23531;SDS011;11943;52.270;20.978;2023-04-25T01:11:07;22.15;;;18.75;;
23531;SDS011;11943;52.270;20.978;2023-04-25T01:13:33;22.38;;;19.20;;
23531;SDS011;11943;52.270;20.978;2023-04-25T01:16:00;28.00;;;19.80;;
23531;SDS011;11943;52.270;20.978;2023-04-25T01:18:26;27.00;;;21.08;;
23531;SDS011;11943;52.270;20.978;2023-04-25T01:20:52;23.90;;;19.35;;
23531;SDS011;11943;52.270;20.978;2023-04-25T01:23:22;25.13;;;19.53;;
23531;SDS011;11943;52.270;20.978;2023-04-25T01:25:48;24.58;;;19.42;;
23531;SDS011;11943;52.270;20.978;2023-04-25T01:28:14;27.20;;;18.85;;
23531;SDS011;11943;52.270;20.978;2023-04-25T01:30:41;23.63;;;19.48;;
23531;SDS011;11943;52.270;20.978;2023-04-25T01:33:08;23.35;;;19.25;;
23531;SDS011;11943;52.270;20.978;2023-04-25T01:35:34;24.83;;;19.27;;
23531;SDS011;11943;52.270;20.978;2023-04-25T01:37:59;25.75;;;18.65;;
23531;SDS011;11943;52.270;20.978;2023-04-25T01:40:25;24.10;;;18.60;;
23531;SDS011;11943;52.270;20.978;2023-04-25T01:42:53;22.85;;;18.52;;
23531;SDS011;11943;52.270;20.978;2023-04-25T01:45:19;22.77;;;17.77;;
23531;SDS011;11943;52.270;20.978;2023-04-25T02:07:57;22.30;;;17.70;;
23531;SDS011;11943;52.270;20.978;2023-04-25T02:10:23;20.83;;;17.23;;
23531;SDS011;11943;52.270;20.978;2023-04-25T02:12:48;22.40;;;17.73;;
23531;SDS011;11943;52.270;20.978;2023-04-25T02:15:14;22.27;;;17.88;;
23531;SDS011;11943;52.270;20.978;2023-04-25T02:17:39;24.65;;;18.88;;
23531;SDS011;11943;52.270;20.978;2023-04-25T02:20:05;22.77;;;17.55;;
23531;SDS011;11943;52.270;20.978;2023-04-25T02:22:32;21.77;;;16.98;;
23531;SDS011;11943;52.270;20.978;2023-04-25T02:24:58;23.27;;;16.45;;
23531;SDS011;11943;52.270;20.978;2023-04-25T02:27:24;24.00;;;17.67;;
23531;SDS011;11943;52.270;20.978;2023-04-25T02:29:50;21.40;;;16.17;;
23531;SDS011;11943;52.270;20.978;2023-04-25T02:32:15;23.42;;;17.52;;
23531;SDS011;11943;52.270;20.978;2023-04-25T02:34:41;21.27;;;16.42;;
23531;SDS011;11943;52.270;20.978;2023-04-25T02:37:07;21.25;;;16.13;;
23531;SDS011;11943;52.270;20.978;2023-04-25T02:39:32;20.77;;;16.48;;
23531;SDS011;11943;52.270;20.978;2023-04-25T02:41:58;20.98;;;17.15;;
23531;SDS011;11943;52.270;20.978;2023-04-25T02:44:23;20.58;;;16.17;;
23531;SDS011;11943;52.270;20.978;2023-04-25T02:46:49;20.02;;;15.68;;
23531;SDS011;11943;52.270;20.978;2023-04-25T02:49:15;19.70;;;16.25;;
23531;SDS011;11943;52.270;20.978;2023-04-25T02:51:41;18.98;;;14.55;;
23531;SDS011;11943;52.270;20.978;2023-04-25T02:54:06;18.05;;;15.75;;
23531;SDS011;11943;52.270;20.978;2023-04-25T02:56:32;18.95;;;14.95;;
23531;SDS011;11943;52.270;20.978;2023-04-25T02:58:58;21.38;;;15.35;;
23531;SDS011;11943;52.270;20.978;2023-04-25T03:01:24;17.80;;;14.57;;
23531;SDS011;11943;52.270;20.978;2023-04-25T03:03:50;17.40;;;14.85;;
23531;SDS011;11943;52.270;20.978;2023-04-25T03:06:16;20.05;;;13.27;;
23531;SDS011;11943;52.270;20.978;2023-04-25T03:08:41;18.20;;;13.75;;
23531;SDS011;11943;52.270;20.978;2023-04-25T03:11:07;19.15;;;15.32;;
23531;SDS011;11943;52.270;20.978;2023-04-25T03:13:33;20.58;;;13.98;;
23531;SDS011;11943;52.270;20.978;2023-04-25T03:15:59;19.92;;;14.23;;
23531;SDS011;11943;52.270;20.978;2023-04-25T03:18:25;18.50;;;13.93;;
23531;SDS011;11943;52.270;20.978;2023-04-25T03:20:50;20.83;;;13.80;;
23531;SDS011;11943;52.270;20.978;2023-04-25T03:23:16;15.82;;;13.05;;
23531;SDS011;11943;52.270;20.978;2023-04-25T03:25:42;19.98;;;13.77;;
23531;SDS011;11943;52.270;20.978;2023-04-25T03:28:07;16.55;;;13.05;;
23531;SDS011;11943;52.270;20.978;2023-04-25T03:30:33;18.58;;;13.73;;
23531;SDS011;11943;52.270;20.978;2023-04-25T03:32:59;18.20;;;12.55;;
23531;SDS011;11943;52.270;20.978;2023-04-25T03:35:24;17.63;;;13.02;;
23531;SDS011;11943;52.270;20.978;2023-04-25T03:37:50;19.67;;;13.95;;
23531;SDS011;11943;52.270;20.978;2023-04-25T03:40:15;18.40;;;12.80;;
23531;SDS011;11943;52.270;20.978;2023-04-25T03:42:41;16.23;;;12.90;;
23531;SDS011;11943;52.270;20.978;2023-04-25T03:45:07;15.45;;;12.00;;
23531;SDS011;11943;52.270;20.978;2023-04-25T03:47:33;16.92;;;13.30;;
23531;SDS011;11943;52.270;20.978;2023-04-25T03:49:58;17.10;;;12.60;;
23531;SDS011;11943;52.270;20.978;2023-04-25T03:52:26;16.10;;;12.77;;
23531;SDS011;11943;52.270;20.978;2023-04-25T03:54:52;16.65;;;13.23;;
23531;SDS011;11943;52.270;20.978;2023-04-25T03:57:18;17.00;;;12.27;;
23531;SDS011;11943;52.270;20.978;2023-04-25T03:59:43;17.08;;;12.32;;
23531;SDS011;11943;52.270;20.978;2023-04-25T04:02:09;16.85;;;11.75;;
23531;SDS011;11943;52.270;20.978;2023-04-25T04:04:35;14.32;;;11.60;;
23531;SDS011;11943;52.270;20.978;2023-04-25T04:07:01;15.07;;;10.80;;
23531;SDS011;11943;52.270;20.978;2023-04-25T04:09:27;15.68;;;11.45;;
23531;SDS011;11943;52.270;20.978;2023-04-25T04:11:53;13.63;;;11.27;;
23531;SDS011;11943;52.270;20.978;2023-04-25T04:14:18;15.50;;;11.02;;
23531;SDS011;11943;52.270;20.978;2023-04-25T04:16:44;15.10;;;11.23;;
23531;SDS011;11943;52.270;20.978;2023-04-25T04:19:10;14.98;;;12.05;;
23531;SDS011;11943;52.270;20.978;2023-04-25T04:21:35;18.52;;;12.40;;
23531;SDS011;11943;52.270;20.978;2023-04-25T04:24:01;14.02;;;10.35;;
23531;SDS011;11943;52.270;20.978;2023-04-25T04:26:27;15.27;;;11.05;;
23531;SDS011;11943;52.270;20.978;2023-04-25T04:28:53;14.38;;;10.63;;
23531;SDS011;11943;52.270;20.978;2023-04-25T04:31:22;14.55;;;11.43;;
23531;SDS011;11943;52.270;20.978;2023-04-25T04:33:48;15.07;;;11.95;;
23531;SDS011;11943;52.270;20.978;2023-04-25T04:36:14;14.95;;;11.60;;
23531;SDS011;11943;52.270;20.978;2023-04-25T04:38:40;13.55;;;11.02;;
23531;SDS011;11943;52.270;20.978;2023-04-25T04:41:07;14.15;;;11.30;;
23531;SDS011;11943;52.270;20.978;2023-04-25T04:43:33;14.98;;;11.10;;
23531;SDS011;11943;52.270;20.978;2023-04-25T04:46:02;15.55;;;11.15;;
23531;SDS011;11943;52.270;20.978;2023-04-25T04:48:29;13.68;;;10.75;;
23531;SDS011;11943;52.270;20.978;2023-04-25T04:50:57;12.70;;;11.15;;
23531;SDS011;11943;52.270;20.978;2023-04-25T04:53:23;15.20;;;10.80;;
23531;SDS011;11943;52.270;20.978;2023-04-25T04:55:49;13.82;;;10.73;;
23531;SDS011;11943;52.270;20.978;2023-04-25T04:58:15;14.50;;;11.23;;
23531;SDS011;11943;52.270;20.978;2023-04-25T05:00:40;11.82;;;10.15;;
23531;SDS011;11943;52.270;20.978;2023-04-25T05:03:06;13.23;;;11.20;;
23531;SDS011;11943;52.270;20.978;2023-04-25T05:05:32;14.43;;;11.77;;
23531;SDS011;11943;52.270;20.978;2023-04-25T05:07:57;17.52;;;11.07;;
23531;SDS011;11943;52.270;20.978;2023-04-25T05:10:23;13.25;;;11.70;;
23531;SDS011;11943;52.270;20.978;2023-04-25T05:12:49;13.18;;;11.68;;
23531;SDS011;11943;52.270;20.978;2023-04-25T05:15:14;14.30;;;11.68;;
23531;SDS011;11943;52.270;20.978;2023-04-25T05:17:40;12.52;;;11.23;;
23531;SDS011;11943;52.270;20.978;2023-04-25T05:20:06;13.48;;;11.13;;
23531;SDS011;11943;52.270;20.978;2023-04-25T05:22:34;13.70;;;11.38;;
23531;SDS011;11943;52.270;20.978;2023-04-25T05:25:00;14.48;;;11.52;;
23531;SDS011;11943;52.270;20.978;2023-04-25T05:27:26;14.77;;;11.70;;
23531;SDS011;11943;52.270;20.978;2023-04-25T05:29:52;14.70;;;12.13;;
23531;SDS011;11943;52.270;20.978;2023-04-25T05:32:17;14.95;;;12.85;;
23531;SDS011;11943;52.270;20.978;2023-04-25T05:34:43;15.18;;;12.20;;
23531;SDS011;11943;52.270;20.978;2023-04-25T05:37:09;18.38;;;12.30;;
23531;SDS011;11943;52.270;20.978;2023-04-25T05:39:35;15.25;;;12.25;;
23531;SDS011;11943;52.270;20.978;2023-04-25T05:42:00;15.82;;;12.90;;
23531;SDS011;11943;52.270;20.978;2023-04-25T05:44:27;15.02;;;12.80;;
23531;SDS011;11943;52.270;20.978;2023-04-25T05:46:52;13.63;;;12.00;;
23531;SDS011;11943;52.270;20.978;2023-04-25T05:49:18;15.07;;;11.80;;
23531;SDS011;11943;52.270;20.978;2023-04-25T05:51:44;15.77;;;11.27;;
23531;SDS011;11943;52.270;20.978;2023-04-25T05:54:09;13.50;;;11.90;;
23531;SDS011;11943;52.270;20.978;2023-04-25T05:56:35;15.52;;;12.43;;
23531;SDS011;11943;52.270;20.978;2023-04-25T05:59:01;15.38;;;12.77;;
23531;SDS011;11943;52.270;20.978;2023-04-25T06:01:28;14.15;;;12.48;;
23531;SDS011;11943;52.270;20.978;2023-04-25T06:03:53;12.82;;;11.45;;
23531;SDS011;11943;52.270;20.978;2023-04-25T06:06:19;14.63;;;12.13;;
23531;SDS011;11943;52.270;20.978;2023-04-25T06:08:44;14.52;;;12.70;;
23531;SDS011;11943;52.270;20.978;2023-04-25T06:11:10;13.02;;;11.73;;
23531;SDS011;11943;52.270;20.978;2023-04-25T06:13:36;15.13;;;11.27;;
23531;SDS011;11943;52.270;20.978;2023-04-25T06:16:02;13.73;;;12.32;;
23531;SDS011;11943;52.270;20.978;2023-04-25T06:18:28;15.55;;;11.20;;
23531;SDS011;11943;52.270;20.978;2023-04-25T06:20:53;12.82;;;11.52;;
23531;SDS011;11943;52.270;20.978;2023-04-25T06:23:19;12.70;;;10.93;;
23531;SDS011;11943;52.270;20.978;2023-04-25T06:25:45;15.27;;;12.32;;
23531;SDS011;11943;52.270;20.978;2023-04-25T06:28:11;13.95;;;11.77;;
23531;SDS011;11943;52.270;20.978;2023-04-25T06:30:36;15.90;;;12.75;;
23531;SDS011;11943;52.270;20.978;2023-04-25T06:33:03;15.82;;;13.77;;
23531;SDS011;11943;52.270;20.978;2023-04-25T06:35:28;19.15;;;14.13;;
23531;SDS011;11943;52.270;20.978;2023-04-25T06:37:54;16.13;;;14.43;;
23531;SDS011;11943;52.270;20.978;2023-04-25T06:40:20;16.63;;;14.63;;
23531;SDS011;11943;52.270;20.978;2023-04-25T06:42:45;16.95;;;14.93;;
23531;SDS011;11943;52.270;20.978;2023-04-25T06:45:11;18.95;;;14.95;;
23531;SDS011;11943;52.270;20.978;2023-04-25T06:47:37;22.50;;;14.45;;
23531;SDS011;11943;52.270;20.978;2023-04-25T06:50:03;18.52;;;13.85;;
23531;SDS011;11943;52.270;20.978;2023-04-25T06:52:29;14.85;;;12.93;;
23531;SDS011;11943;52.270;20.978;2023-04-25T06:54:54;15.15;;;11.02;;
23531;SDS011;11943;52.270;20.978;2023-04-25T06:57:20;15.23;;;12.85;;
23531;SDS011;11943;52.270;20.978;2023-04-25T06:59:46;13.65;;;11.93;;
23531;SDS011;11943;52.270;20.978;2023-04-25T07:02:11;12.68;;;10.38;;
23531;SDS011;11943;52.270;20.978;2023-04-25T07:04:37;12.10;;;10.55;;
23531;SDS011;11943;52.270;20.978;2023-04-25T07:07:03;15.75;;;10.82;;
23531;SDS011;11943;52.270;20.978;2023-04-25T07:09:28;12.57;;;10.63;;
23531;SDS011;11943;52.270;20.978;2023-04-25T07:11:54;12.27;;;10.98;;
23531;SDS011;11943;52.270;20.978;2023-04-25T07:14:21;11.60;;;9.65;;
23531;SDS011;11943;52.270;20.978;2023-04-25T07:16:47;12.82;;;10.77;;
23531;SDS011;11943;52.270;20.978;2023-04-25T07:19:13;12.00;;;10.30;;
23531;SDS011;11943;52.270;20.978;2023-04-25T07:21:38;12.05;;;10.73;;
23531;SDS011;11943;52.270;20.978;2023-04-25T07:24:04;11.95;;;9.75;;
23531;SDS011;11943;52.270;20.978;2023-04-25T07:26:30;14.40;;;9.38;;
23531;SDS011;11943;52.270;20.978;2023-04-25T07:28:56;9.77;;;8.80;;
23531;SDS011;11943;52.270;20.978;2023-04-25T07:31:21;15.55;;;9.85;;
23531;SDS011;11943;52.270;20.978;2023-04-25T07:33:48;10.55;;;8.60;;
23531;SDS011;11943;52.270;20.978;2023-04-25T07:36:13;9.57;;;8.38;;
23531;SDS011;11943;52.270;20.978;2023-04-25T07:38:40;9.65;;;8.63;;
23531;SDS011;11943;52.270;20.978;2023-04-25T07:41:06;14.20;;;10.13;;
23531;SDS011;11943;52.270;20.978;2023-04-25T07:43:31;11.85;;;8.75;;
23531;SDS011;11943;52.270;20.978;2023-04-25T07:45:57;11.20;;;9.20;;
23531;SDS011;11943;52.270;20.978;2023-04-25T07:48:23;13.23;;;9.85;;
23531;SDS011;11943;52.270;20.978;2023-04-25T07:50:49;14.20;;;10.32;;
23531;SDS011;11943;52.270;20.978;2023-04-25T07:53:15;11.13;;;10.02;;
23531;SDS011;11943;52.270;20.978;2023-04-25T07:55:42;10.95;;;9.52;;
23531;SDS011;11943;52.270;20.978;2023-04-25T07:58:08;11.60;;;9.30;;
23531;SDS011;11943;52.270;20.978;2023-04-25T08:00:35;11.77;;;9.90;;
23531;SDS011;11943;52.270;20.978;2023-04-25T08:03:00;13.05;;;10.55;;
23531;SDS011;11943;52.270;20.978;2023-04-25T08:05:27;12.75;;;11.45;;
23531;SDS011;11943;52.270;20.978;2023-04-25T08:07:53;13.70;;;11.60;;
23531;SDS011;11943;52.270;20.978;2023-04-25T08:10:19;13.18;;;11.60;;
23531;SDS011;11943;52.270;20.978;2023-04-25T08:12:45;14.98;;;12.90;;
23531;SDS011;11943;52.270;20.978;2023-04-25T08:15:11;15.50;;;13.75;;
23531;SDS011;11943;52.270;20.978;2023-04-25T08:17:38;14.93;;;13.15;;
23531;SDS011;11943;52.270;20.978;2023-04-25T08:20:04;14.70;;;12.90;;
23531;SDS011;11943;52.270;20.978;2023-04-25T08:22:30;15.30;;;12.52;;
23531;SDS011;11943;52.270;20.978;2023-04-25T08:24:56;12.45;;;10.00;;
23531;SDS011;11943;52.270;20.978;2023-04-25T08:27:22;15.45;;;10.65;;
23531;SDS011;11943;52.270;20.978;2023-04-25T08:29:48;12.85;;;10.60;;
23531;SDS011;11943;52.270;20.978;2023-04-25T08:32:15;12.73;;;11.43;;
23531;SDS011;11943;52.270;20.978;2023-04-25T08:34:41;12.98;;;10.27;;
23531;SDS011;11943;52.270;20.978;2023-04-25T08:37:08;11.90;;;10.68;;
23531;SDS011;11943;52.270;20.978;2023-04-25T08:39:35;12.13;;;9.77;;
23531;SDS011;11943;52.270;20.978;2023-04-25T08:42:01;11.00;;;9.93;;
23531;SDS011;11943;52.270;20.978;2023-04-25T08:44:31;11.18;;;9.98;;
23531;SDS011;11943;52.270;20.978;2023-04-25T08:49:24;10.30;;;9.30;;
23531;SDS011;11943;52.270;20.978;2023-04-25T08:51:51;10.15;;;9.15;;
23531;SDS011;11943;52.270;20.978;2023-04-25T08:54:18;11.02;;;9.93;;
23531;SDS011;11943;52.270;20.978;2023-04-25T08:56:51;10.18;;;9.18;;
23531;SDS011;11943;52.270;20.978;2023-04-25T08:59:16;12.38;;;9.82;;
23531;SDS011;11943;52.270;20.978;2023-04-25T09:01:43;11.10;;;10.00;;
23531;SDS011;11943;52.270;20.978;2023-04-25T09:04:10;12.43;;;10.35;;
23531;SDS011;11943;52.270;20.978;2023-04-25T09:06:37;10.25;;;8.98;;
23531;SDS011;11943;52.270;20.978;2023-04-25T09:09:03;11.13;;;9.70;;
23531;SDS011;11943;52.270;20.978;2023-04-25T09:11:31;11.15;;;10.02;;
23531;SDS011;11943;52.270;20.978;2023-04-25T09:14:13;10.52;;;9.25;;
23531;SDS011;11943;52.270;20.978;2023-04-25T09:19:38;10.30;;;9.15;;
23531;SDS011;11943;52.270;20.978;2023-04-25T09:22:05;11.98;;;9.18;;
23531;SDS011;11943;52.270;20.978;2023-04-25T09:26:58;11.88;;;9.35;;
23531;SDS011;11943;52.270;20.978;2023-04-25T09:29:31;11.85;;;10.00;;
23531;SDS011;11943;52.270;20.978;2023-04-25T09:32:14;11.95;;;10.68;;
23531;SDS011;11943;52.270;20.978;2023-04-25T09:34:47;14.00;;;10.70;;
23531;SDS011;11943;52.270;20.978;2023-04-25T09:37:21;11.95;;;10.73;;
23531;SDS011;11943;52.270;20.978;2023-04-25T09:39:49;12.35;;;11.15;;
23531;SDS011;11943;52.270;20.978;2023-04-25T09:42:16;12.30;;;11.10;;
23531;SDS011;11943;52.270;20.978;2023-04-25T09:44:43;13.77;;;11.98;;
23531;SDS011;11943;52.270;20.978;2023-04-25T09:47:14;12.40;;;11.07;;
23531;SDS011;11943;52.270;20.978;2023-04-25T09:49:41;14.75;;;11.93;;
23531;SDS011;11943;52.270;20.978;2023-04-25T09:52:08;12.95;;;11.65;;
23531;SDS011;11943;52.270;20.978;2023-04-25T09:54:34;14.95;;;12.27;;
23531;SDS011;11943;52.270;20.978;2023-04-25T09:57:13;12.80;;;11.50;;
23531;SDS011;11943;52.270;20.978;2023-04-25T09:59:44;15.00;;;12.25;;
23531;SDS011;11943;52.270;20.978;2023-04-25T10:02:15;15.07;;;12.80;;
23531;SDS011;11943;52.270;20.978;2023-04-25T10:04:44;16.50;;;13.15;;
23531;SDS011;11943;52.270;20.978;2023-04-25T10:07:13;14.55;;;12.85;;
23531;SDS011;11943;52.270;20.978;2023-04-25T10:09:40;15.02;;;13.50;;
23531;SDS011;11943;52.270;20.978;2023-04-25T10:12:07;17.47;;;15.53;;
23531;SDS011;11943;52.270;20.978;2023-04-25T10:14:33;16.25;;;14.60;;
23531;SDS011;11943;52.270;20.978;2023-04-25T10:17:00;16.90;;;15.20;;
23531;SDS011;11943;52.270;20.978;2023-04-25T10:19:26;17.52;;;15.00;;
23531;SDS011;11943;52.270;20.978;2023-04-25T10:24:25;18.27;;;16.30;;
23531;SDS011;11943;52.270;20.978;2023-04-25T10:26:51;20.27;;;16.80;;
23531;SDS011;11943;52.270;20.978;2023-04-25T10:29:24;20.17;;;16.50;;
23531;SDS011;11943;52.270;20.978;2023-04-25T10:31:51;18.50;;;16.60;;
23531;SDS011;11943;52.270;20.978;2023-04-25T10:34:17;19.70;;;17.55;;
23531;SDS011;11943;52.270;20.978;2023-04-25T10:36:48;19.05;;;16.20;;
23531;SDS011;11943;52.270;20.978;2023-04-25T10:39:25;20.73;;;18.08;;
23531;SDS011;11943;52.270;20.978;2023-04-25T10:41:53;19.80;;;17.60;;
23531;SDS011;11943;52.270;20.978;2023-04-25T10:44:27;19.42;;;17.33;;
23531;SDS011;11943;52.270;20.978;2023-04-25T10:46:57;20.60;;;17.02;;
23531;SDS011;11943;52.270;20.978;2023-04-25T10:49:34;20.70;;;16.50;;
23531;SDS011;11943;52.270;20.978;2023-04-25T10:54:58;23.20;;;17.27;;
23531;SDS011;11943;52.270;20.978;2023-04-25T11:02:37;18.05;;;16.05;;
23531;SDS011;11943;52.270;20.978;2023-04-25T11:05:05;18.52;;;16.73;;
23531;SDS011;11943;52.270;20.978;2023-04-25T11:07:39;18.05;;;14.95;;
23531;SDS011;11943;52.270;20.978;2023-04-25T11:10:12;16.70;;;14.75;;
23531;SDS011;11943;52.270;20.978;2023-04-25T11:12:38;18.60;;;16.67;;
23531;SDS011;11943;52.270;20.978;2023-04-25T11:15:05;19.75;;;15.75;;
23531;SDS011;11943;52.270;20.978;2023-04-25T11:19:58;16.48;;;14.05;;
23531;SDS011;11943;52.270;20.978;2023-04-25T11:22:24;15.45;;;13.10;;
23531;SDS011;11943;52.270;20.978;2023-04-25T11:24:51;14.88;;;13.35;;
23531;SDS011;11943;52.270;20.978;2023-04-25T11:27:17;13.38;;;12.02;;
23531;SDS011;11943;52.270;20.978;2023-04-25T11:29:42;14.00;;;12.02;;
23531;SDS011;11943;52.270;20.978;2023-04-25T11:32:08;12.75;;;11.43;;
23531;SDS011;11943;52.270;20.978;2023-04-25T11:34:34;16.17;;;8.35;;
23531;SDS011;11943;52.270;20.978;2023-04-25T11:37:00;12.98;;;10.10;;
23531;SDS011;11943;52.270;20.978;2023-04-25T11:39:27;10.18;;;8.82;;
23531;SDS011;11943;52.270;20.978;2023-04-25T11:41:54;10.82;;;9.73;;
23531;SDS011;11943;52.270;20.978;2023-04-25T11:44:20;11.60;;;9.13;;
23531;SDS011;11943;52.270;20.978;2023-04-25T11:46:46;11.90;;;9.68;;
23531;SDS011;11943;52.270;20.978;2023-04-25T11:49:13;15.00;;;10.45;;
23531;SDS011;11943;52.270;20.978;2023-04-25T11:54:05;11.50;;;10.00;;
23531;SDS011;11943;52.270;20.978;2023-04-25T11:56:31;13.40;;;9.73;;
23531;SDS011;11943;52.270;20.978;2023-04-25T11:58:58;11.40;;;9.32;;
23531;SDS011;11943;52.270;20.978;2023-04-25T12:01:34;10.70;;;9.60;;
23531;SDS011;11943;52.270;20.978;2023-04-25T12:04:10;10.73;;;9.63;;
23531;SDS011;11943;52.270;20.978;2023-04-25T12:06:37;10.48;;;9.27;;
23531;SDS011;11943;52.270;20.978;2023-04-25T12:09:07;11.13;;;9.30;;
23531;SDS011;11943;52.270;20.978;2023-04-25T12:11:43;12.05;;;10.00;;
23531;SDS011;11943;52.270;20.978;2023-04-25T12:14:10;10.45;;;8.32;;
23531;SDS011;11943;52.270;20.978;2023-04-25T12:16:40;9.55;;;8.45;;
23531;SDS011;11943;52.270;20.978;2023-04-25T12:19:13;13.10;;;8.15;;
23531;SDS011;11943;52.270;20.978;2023-04-25T12:21:39;9.80;;;7.65;;
23531;SDS011;11943;52.270;20.978;2023-04-25T12:24:21;13.23;;;8.00;;
23531;SDS011;11943;52.270;20.978;2023-04-25T12:26:50;9.10;;;8.20;;
23531;SDS011;11943;52.270;20.978;2023-04-25T12:29:29;11.57;;;7.80;;
23531;SDS011;11943;52.270;20.978;2023-04-25T12:31:56;9.32;;;7.18;;
23531;SDS011;11943;52.270;20.978;2023-04-25T12:34:22;9.63;;;7.18;;
23531;SDS011;11943;52.270;20.978;2023-04-25T12:36:49;8.00;;;6.75;;
23531;SDS011;11943;52.270;20.978;2023-04-25T12:41:42;7.75;;;7.05;;
23531;SDS011;11943;52.270;20.978;2023-04-25T12:44:08;7.57;;;6.88;;
23531;SDS011;11943;52.270;20.978;2023-04-25T12:46:34;9.80;;;6.80;;
23531;SDS011;11943;52.270;20.978;2023-04-25T12:49:00;8.30;;;7.40;;
23531;SDS011;11943;52.270;20.978;2023-04-25T12:51:26;7.57;;;6.78;;
23531;SDS011;11943;52.270;20.978;2023-04-25T12:53:52;7.93;;;6.72;;
23531;SDS011;11943;52.270;20.978;2023-04-25T12:56:18;7.35;;;6.65;;
23531;SDS011;11943;52.270;20.978;2023-04-25T12:58:44;10.23;;;6.60;;
23531;SDS011;11943;52.270;20.978;2023-04-25T13:01:10;7.57;;;6.88;;
23531;SDS011;11943;52.270;20.978;2023-04-25T13:03:37;7.82;;;6.45;;
23531;SDS011;11943;52.270;20.978;2023-04-25T13:06:03;9.50;;;6.60;;
23531;SDS011;11943;52.270;20.978;2023-04-25T13:08:29;12.13;;;6.90;;
23531;SDS011;11943;52.270;20.978;2023-04-25T13:10:55;8.00;;;6.20;;
23531;SDS011;11943;52.270;20.978;2023-04-25T13:13:20;9.85;;;7.32;;
23531;SDS011;11943;52.270;20.978;2023-04-25T13:15:46;7.93;;;6.40;;
23531;SDS011;11943;52.270;20.978;2023-04-25T13:18:12;6.90;;;6.20;;
23531;SDS011;11943;52.270;20.978;2023-04-25T13:20:38;5.80;;;5.07;;
23531;SDS011;11943;52.270;20.978;2023-04-25T13:23:03;8.35;;;6.32;;
23531;SDS011;11943;52.270;20.978;2023-04-25T13:25:29;6.15;;;5.55;;
23531;SDS011;11943;52.270;20.978;2023-04-25T13:27:55;8.10;;;6.03;;
23531;SDS011;11943;52.270;20.978;2023-04-25T13:30:20;8.27;;;5.40;;
23531;SDS011;11943;52.270;20.978;2023-04-25T13:32:46;6.20;;;5.60;;
23531;SDS011;11943;52.270;20.978;2023-04-25T13:35:12;7.40;;;4.90;;
23531;SDS011;11943;52.270;20.978;2023-04-25T13:37:39;6.57;;;5.10;;
23531;SDS011;11943;52.270;20.978;2023-04-25T13:40:06;5.63;;;4.95;;
23531;SDS011;11943;52.270;20.978;2023-04-25T13:42:34;6.22;;;5.30;;
23531;SDS011;11943;52.270;20.978;2023-04-25T13:45:01;8.32;;;5.15;;
23531;SDS011;11943;52.270;20.978;2023-04-25T13:47:27;6.28;;;4.45;;
23531;SDS011;11943;52.270;20.978;2023-04-25T13:49:53;4.47;;;4.07;;
23531;SDS011;11943;52.270;20.978;2023-04-25T13:52:19;5.82;;;5.20;;
23531;SDS011;11943;52.270;20.978;2023-04-25T13:54:45;5.80;;;4.53;;
23531;SDS011;11943;52.270;20.978;2023-04-25T13:57:11;7.68;;;5.38;;
23531;SDS011;11943;52.270;20.978;2023-04-25T13:59:37;5.53;;;4.95;;
23531;SDS011;11943;52.270;20.978;2023-04-25T14:02:03;6.78;;;5.28;;
23531;SDS011;11943;52.270;20.978;2023-04-25T14:04:29;5.35;;;4.35;;
23531;SDS011;11943;52.270;20.978;2023-04-25T14:06:55;9.13;;;5.25;;
23531;SDS011;11943;52.270;20.978;2023-04-25T14:09:21;5.30;;;4.80;;
23531;SDS011;11943;52.270;20.978;2023-04-25T14:11:50;5.28;;;4.22;;
23531;SDS011;11943;52.270;20.978;2023-04-25T14:14:17;6.55;;;4.95;;
23531;SDS011;11943;52.270;20.978;2023-04-25T14:16:43;5.85;;;4.85;;
23531;SDS011;11943;52.270;20.978;2023-04-25T14:19:09;5.18;;;4.68;;
23531;SDS011;11943;52.270;20.978;2023-04-25T14:21:35;5.88;;;4.65;;
23531;SDS011;11943;52.270;20.978;2023-04-25T14:24:01;7.35;;;4.90;;
23531;SDS011;11943;52.270;20.978;2023-04-25T14:26:26;6.00;;;4.80;;
23531;SDS011;11943;52.270;20.978;2023-04-25T14:28:52;10.80;;;5.10;;
23531;SDS011;11943;52.270;20.978;2023-04-25T14:31:17;8.15;;;5.28;;
23531;SDS011;11943;52.270;20.978;2023-04-25T14:33:43;7.22;;;5.05;;
23531;SDS011;11943;52.270;20.978;2023-04-25T14:36:10;7.73;;;5.23;;
23531;SDS011;11943;52.270;20.978;2023-04-25T14:38:36;6.28;;;5.45;;
23531;SDS011;11943;52.270;20.978;2023-04-25T14:41:01;6.43;;;5.40;;
23531;SDS011;11943;52.270;20.978;2023-04-25T14:43:28;6.88;;;5.63;;
23531;SDS011;11943;52.270;20.978;2023-04-25T14:45:53;9.18;;;6.30;;
23531;SDS011;11943;52.270;20.978;2023-04-25T14:48:19;7.63;;;6.45;;
23531;SDS011;11943;52.270;20.978;2023-04-25T14:50:45;9.35;;;6.70;;
23531;SDS011;11943;52.270;20.978;2023-04-25T14:53:11;7.05;;;6.30;;
23531;SDS011;11943;52.270;20.978;2023-04-25T14:55:38;6.93;;;6.22;;
23531;SDS011;11943;52.270;20.978;2023-04-25T14:58:03;10.07;;;6.95;;
23531;SDS011;11943;52.270;20.978;2023-04-25T15:00:29;7.30;;;6.28;;